createdAt,value
2022-10-10T00:01:01.251Z,13.65
2022-10-10T00:03:30.419Z,13.84
2022-10-10T00:05:59.089Z,13.89
2022-10-10T00:08:26.910Z,13.90
2022-10-10T00:10:54.253Z,13.83
2022-10-10T00:13:24.472Z,13.96
2022-10-10T00:15:52.045Z,14.02
2022-10-10T00:18:19.780Z,13.92
2022-10-10T00:20:47.233Z,13.77
2022-10-10T00:23:15.015Z,13.76
2022-10-10T00:25:42.472Z,13.73
2022-10-10T00:28:09.779Z,13.76
2022-10-10T00:30:38.624Z,13.59
2022-10-10T00:33:06.023Z,13.66
2022-10-10T00:35:33.609Z,13.69
2022-10-10T00:38:01.611Z,13.42
2022-10-10T00:40:29.197Z,13.55
2022-10-10T00:42:56.522Z,13.60
2022-10-10T00:45:39.251Z,13.38
2022-10-10T00:48:07.135Z,13.32
2022-10-10T00:50:37.582Z,13.29
2022-10-10T00:53:05.621Z,13.43
2022-10-10T00:55:33.191Z,13.39
2022-10-10T00:58:00.633Z,13.36
2022-10-10T01:00:29.455Z,13.15
2022-10-10T01:02:56.873Z,13.28
2022-10-10T01:05:24.178Z,13.33
2022-10-10T01:07:51.873Z,13.38
2022-10-10T01:10:19.566Z,13.27
2022-10-10T01:12:47.391Z,13.24
2022-10-10T01:15:35.026Z,13.23
2022-10-10T01:18:14.377Z,13.00
2022-10-10T01:20:59.911Z,13.01
2022-10-10T01:23:30.355Z,12.98
2022-10-10T01:26:00.826Z,12.96
2022-10-10T01:28:31.425Z,12.96
2022-10-10T01:30:58.811Z,12.93
2022-10-10T01:33:49.446Z,13.10
2022-10-10T01:36:23.147Z,13.06
2022-10-10T01:39:02.850Z,12.93
2022-10-10T01:41:34.720Z,13.03
2022-10-10T01:44:02.122Z,13.01
2022-10-10T01:46:29.619Z,13.06
2022-10-10T01:48:57.668Z,12.83
2022-10-10T01:52:00.880Z,12.58
2022-10-10T01:54:35.100Z,12.67
2022-10-10T01:57:02.696Z,12.66
2022-10-10T01:59:43.935Z,12.64
2022-10-10T02:02:17.556Z,12.82
2022-10-10T02:04:44.957Z,13.04
2022-10-10T02:07:38.985Z,13.06
2022-10-10T02:10:09.518Z,12.82
2022-10-10T02:12:36.889Z,12.67
2022-10-10T02:15:11.483Z,12.72
2022-10-10T02:17:39.821Z,12.78
2022-10-10T02:20:08.697Z,12.60
2022-10-10T02:22:37.119Z,12.75
2022-10-10T02:25:04.667Z,12.79
2022-10-10T02:27:35.924Z,12.72
2022-10-10T02:30:03.842Z,12.73
2022-10-10T02:32:31.471Z,12.79
2022-10-10T02:34:59.629Z,12.75
2022-10-10T02:37:27.373Z,12.63
2022-10-10T02:39:56.903Z,12.76
2022-10-10T02:42:24.246Z,12.89
2022-10-10T02:44:51.721Z,12.92
2022-10-10T02:47:18.978Z,12.92
2022-10-10T02:49:46.539Z,12.70
2022-10-10T02:52:14.095Z,12.56
2022-10-10T02:54:41.604Z,12.64
2022-10-10T02:57:09.372Z,12.85
2022-10-10T02:59:38.892Z,12.67
2022-10-10T03:02:06.776Z,12.94
2022-10-10T03:04:35.395Z,13.03
2022-10-10T03:07:03.979Z,12.86
2022-10-10T03:09:33.816Z,12.91
2022-10-10T03:12:01.441Z,12.92
2022-10-10T03:14:29.190Z,12.99
2022-10-10T03:16:56.519Z,12.90
2022-10-10T03:19:23.930Z,12.88
2022-10-10T03:21:51.680Z,13.11
2022-10-10T03:24:19.095Z,13.06
2022-10-10T03:26:47.101Z,12.83
2022-10-10T03:29:14.507Z,13.06
2022-10-10T03:31:42.000Z,13.33
2022-10-10T03:34:09.270Z,13.22
2022-10-10T03:36:36.941Z,13.32
2022-10-10T03:39:04.622Z,13.15
2022-10-10T03:41:32.054Z,13.28
2022-10-10T03:43:59.934Z,13.22
2022-10-10T03:46:27.490Z,13.32
2022-10-10T03:48:54.849Z,13.32
2022-10-10T03:51:22.733Z,13.06
2022-10-10T03:53:50.136Z,13.42
2022-10-10T03:56:17.608Z,13.75
2022-10-10T03:58:45.317Z,13.58
2022-10-10T04:01:13.074Z,13.62
2022-10-10T04:03:41.032Z,13.57
2022-10-10T04:06:08.601Z,13.57
2022-10-10T16:19:54.278Z,11.87
2022-10-10T16:22:22.290Z,11.82
2022-10-10T16:25:10.235Z,11.73
2022-10-10T16:27:37.969Z,11.67
2022-10-10T16:30:05.739Z,11.73
2022-10-10T16:32:38.114Z,11.75
2022-10-10T16:35:09.860Z,11.84
2022-10-10T16:37:37.391Z,11.78
2022-10-10T16:40:08.117Z,11.79
2022-10-10T16:42:35.626Z,11.80
2022-10-10T16:45:03.182Z,11.78
2022-10-10T16:47:30.805Z,11.84
2022-10-10T16:49:58.383Z,11.76
2022-10-10T16:52:25.992Z,11.88
2022-10-10T16:54:53.679Z,11.75
2022-10-10T16:57:21.167Z,11.57
2022-10-10T16:59:48.809Z,11.59
2022-10-10T17:02:16.438Z,11.76
2022-10-10T17:04:43.907Z,11.73
2022-10-10T17:07:11.656Z,11.72
2022-10-10T17:09:39.310Z,11.72
2022-10-10T17:12:07.254Z,11.61
2022-10-10T17:14:35.467Z,11.55
2022-10-10T17:17:18.241Z,11.60
2022-10-10T17:19:46.165Z,11.61
2022-10-10T17:22:13.602Z,11.60
2022-10-10T17:24:41.046Z,11.58
2022-10-10T17:27:08.475Z,11.65
2022-10-10T17:29:36.696Z,11.59
2022-10-10T17:32:06.684Z,11.60
2022-10-10T17:34:35.303Z,11.46
2022-10-10T17:37:03.003Z,11.55
2022-10-10T17:39:30.724Z,11.20
2022-10-10T17:42:00.489Z,11.34
2022-10-10T17:44:28.476Z,11.46
2022-10-10T17:46:55.976Z,11.29
2022-10-10T17:49:23.789Z,11.50
2022-10-10T17:51:52.552Z,11.62
2022-10-10T17:54:19.983Z,11.57
2022-10-10T17:56:47.935Z,11.27
2022-10-10T17:59:15.368Z,11.53
2022-10-10T18:01:43.096Z,11.24
2022-10-10T18:04:11.061Z,11.21
2022-10-10T18:06:41.354Z,11.35
2022-10-10T18:09:09.808Z,11.55
2022-10-10T18:11:38.558Z,11.47
2022-10-10T18:14:05.965Z,11.49
2022-10-10T18:16:34.381Z,11.59
2022-10-10T18:19:02.487Z,11.51
2022-10-10T18:21:30.296Z,11.55
2022-10-10T18:23:57.711Z,11.54
2022-10-10T18:26:25.933Z,11.47
2022-10-10T18:28:55.573Z,11.57
2022-10-10T18:31:30.085Z,11.36
2022-10-10T18:33:57.669Z,11.39
2022-10-10T18:36:25.794Z,11.20
2022-10-10T18:38:53.161Z,10.96
2022-10-10T18:41:21.625Z,11.10
2022-10-10T18:43:49.417Z,11.13
2022-10-10T18:46:17.642Z,10.85
2022-10-10T18:48:46.446Z,11.14
2022-10-10T18:51:16.846Z,11.06
2022-10-10T18:53:44.663Z,11.27
2022-10-10T18:56:13.289Z,11.10
2022-10-10T18:58:40.776Z,11.15
2022-10-10T19:01:09.190Z,11.01
2022-10-10T19:03:37.913Z,10.85
2022-10-10T19:06:05.826Z,10.82
2022-10-10T19:08:33.321Z,10.73
2022-10-10T19:11:00.947Z,10.70
2022-10-10T19:13:29.027Z,10.74
2022-10-10T19:15:56.500Z,10.66
2022-10-10T19:18:24.821Z,10.44
2022-10-10T19:20:52.144Z,10.51
2022-10-10T19:23:19.823Z,10.55
2022-10-10T19:25:48.019Z,10.28
2022-10-10T19:28:15.502Z,10.42
2022-10-10T19:30:43.941Z,10.51
2022-10-10T19:33:11.306Z,10.52
2022-10-10T19:35:39.890Z,10.55
2022-10-10T19:38:08.084Z,10.64
2022-10-10T19:40:36.113Z,10.78
2022-10-10T19:43:03.805Z,10.88
2022-10-10T19:45:31.346Z,10.86
2022-10-10T19:47:58.695Z,10.76
2022-10-10T19:50:27.103Z,10.46
2022-10-10T19:52:54.489Z,10.61
2022-10-10T19:55:22.494Z,10.78
2022-10-10T19:57:49.880Z,10.76
2022-10-10T20:00:17.323Z,10.90
2022-10-10T20:02:45.532Z,10.97
2022-10-10T20:05:12.953Z,10.80
2022-10-10T20:07:40.311Z,10.70
2022-10-10T20:10:07.983Z,10.69
2022-10-10T20:12:35.449Z,10.60
2022-10-10T20:15:02.865Z,10.75
2022-10-10T20:17:32.625Z,10.93
2022-10-10T20:20:00.251Z,11.02
2022-10-10T20:22:27.795Z,11.03
2022-10-10T20:24:55.176Z,10.81
2022-10-10T20:27:22.526Z,10.87
2022-10-10T20:29:49.872Z,10.95
2022-10-10T20:32:19.069Z,11.06
2022-10-10T20:34:46.914Z,11.01
2022-10-10T20:37:14.530Z,11.11
2022-10-10T20:39:42.064Z,11.30
2022-10-10T20:42:09.412Z,11.19
2022-10-10T20:44:37.531Z,11.11
2022-10-10T20:47:05.049Z,11.10
2022-10-10T20:49:32.862Z,10.96
2022-10-10T20:52:01.031Z,10.84
2022-10-10T20:54:28.608Z,11.07
2022-10-10T20:56:56.031Z,11.02
2022-10-10T20:59:24.711Z,11.13
2022-10-10T21:01:52.171Z,11.23
2022-10-10T21:04:19.692Z,11.00
2022-10-10T21:06:49.960Z,11.13
2022-10-10T21:09:17.433Z,11.07
2022-10-10T21:11:48.630Z,11.07
2022-10-10T21:14:18.371Z,10.99
2022-10-10T21:16:45.991Z,10.81
2022-10-10T21:19:14.008Z,11.06
2022-10-10T21:21:43.831Z,11.24
2022-10-10T21:24:11.521Z,11.15
2022-10-10T21:26:39.146Z,11.21
2022-10-10T21:29:06.816Z,11.14
2022-10-10T21:31:35.170Z,11.06
2022-10-10T21:34:04.266Z,11.21
2022-10-10T21:36:32.005Z,11.28
2022-10-10T21:39:02.751Z,11.18
2022-10-10T21:41:30.441Z,11.15
2022-10-10T21:43:58.059Z,11.10
2022-10-10T21:46:33.572Z,11.06
2022-10-10T21:49:05.301Z,11.06
2022-10-10T21:51:34.720Z,11.07
2022-10-10T21:54:02.568Z,11.12
2022-10-10T21:56:30.162Z,10.98
2022-10-10T21:59:01.053Z,10.85
2022-10-10T22:01:33.317Z,10.94
2022-10-10T22:04:03.536Z,10.93
2022-10-10T22:06:31.179Z,10.90
2022-10-10T22:08:59.819Z,10.92
2022-10-10T22:11:29.642Z,10.78
2022-10-10T22:13:57.188Z,10.70
2022-10-10T22:16:25.227Z,10.82
2022-10-10T22:18:53.546Z,10.96
2022-10-10T22:21:21.156Z,10.85
2022-10-10T22:23:48.836Z,10.89
2022-10-10T22:26:17.264Z,10.97
2022-10-10T22:28:45.019Z,10.88
2022-10-10T22:31:14.377Z,10.79
2022-10-10T22:33:43.238Z,10.89
2022-10-10T22:36:11.099Z,10.79
2022-10-10T22:38:39.132Z,10.70
2022-10-10T22:41:06.683Z,10.84
2022-10-10T22:43:34.084Z,10.69
2022-10-10T22:46:01.869Z,10.81
2022-10-10T22:48:29.781Z,10.77
2022-10-10T22:51:01.017Z,10.85
2022-10-10T22:53:28.940Z,10.92
2022-10-10T22:55:56.239Z,10.78
2022-10-10T22:58:23.836Z,10.70
2022-10-10T23:00:52.335Z,10.81
2022-10-10T23:03:19.931Z,10.78
2022-10-10T23:05:47.325Z,10.85
2022-10-10T23:08:15.215Z,10.85
2022-10-10T23:10:42.725Z,10.85
2022-10-10T23:13:10.190Z,10.55
2022-10-10T23:15:37.472Z,10.67
2022-10-10T23:18:05.594Z,10.63
2022-10-10T23:20:32.967Z,10.70
2022-10-10T23:23:01.782Z,10.49
2022-10-10T23:25:29.222Z,10.50
2022-10-10T23:27:56.645Z,10.68
2022-10-10T23:30:24.017Z,10.56
2022-10-10T23:32:51.496Z,10.64
2022-10-10T23:35:19.649Z,10.63
2022-10-10T23:37:47.414Z,10.61
2022-10-10T23:40:14.805Z,10.72
2022-10-10T23:42:42.384Z,10.44
2022-10-10T23:45:10.103Z,10.49
2022-10-10T23:47:37.943Z,10.51
2022-10-10T23:50:06.945Z,10.64
2022-10-10T23:52:35.135Z,10.73
2022-10-10T23:55:02.426Z,10.60
2022-10-10T23:57:30.010Z,10.46
2022-10-10T23:59:57.271Z,10.61
